COOK1: Arkansas River Nr Coolidge, KS

                                SHEF ID:       COOK1     ARKANSAS R NR COOLIDGE, KS
STATION TYPE:
Regulating: Stage = 8.00, Flow = 2028

PRECIP STAGE STAGE(2) RIV-FLOW WTR-TEMP CONDUCT BAT-LOAD
in ft ft cfs F umho/cm volt
Ccp-Rev Ccp-Rev Ccp-Rev Ccp-Rev Ccp-Rev Ccp-Rev Ccp-Rev
(America/Chicago)
08/09 00:00 0.00 3.62 3.82 179 72.52 4660 12.95
08/09 01:00 0.00 3.59 3.81 174 71.74 4682 12.89
08/09 02:00 0.00 3.59 3.81 174 71.15 4705 12.89
08/09 03:00 0.00 3.58 3.80 172 70.65 4723 12.89
08/09 04:00 0.00 3.60 3.80 175 70.00 4739 12.89
08/09 05:00 0.00 3.57 3.82 170 69.46 4750 12.89
08/09 06:00 0.00 3.58 3.78 172 68.94 4748 12.89
08/09 07:00 0.00 3.59 3.80 174 68.40 4756 12.83
08/09 08:00 0.00 3.56 3.80 169 67.95 4779 12.77
08/09 09:00 0.00 3.58 3.79 172 67.50 4795 12.83
08/09 10:00 0.00 3.58 3.78 172 67.12 4788 12.83
08/09 11:00 0.00 3.55 3.79 167 66.97 4790 13.00
08/09 12:00 0.00 3.56 3.79 169 66.90 4801 13.42
08/09 13:00 0.00 3.57 3.77 170 66.81 4813 13.42
08/09 14:00 0.00 3.58 3.78 172 66.65 4801 13.36
08/09 15:00 0.00 3.56 3.78 169 66.65 4777 13.53
08/09 16:00 0.00 3.56 3.76 169 66.52 4772 13.42
08/09 17:00 0.00 3.57 3.77 170 66.45 4777 13.53
08/09 18:00 0.00 3.55 3.79 167 66.33 4786 13.36
08/09 19:00 0.00 3.55 3.79 167 66.06 4793 13.24
08/09 20:00 0.00 3.55 3.77 167 65.70 4797 13.12
08/09 21:00 0.00 3.54 3.75 166 65.28 4788 13.00
08/09 22:00 0.00 3.53 3.75 164 64.85 4784 12.95
08/09 23:00 ---- ---- ---- ---- ---- ---- ----
Data processed at Sat 10Aug2024 04:30 GMT

Parsing this webpage?

Checkout our new Data API! CWMSDataAPI (CDA)

Timeseries IDs (TSIDs)

TSIDs used from left to right in the data table
COOL.Precip-Inc.Total.1Hour.1Hour.Ccp-Rev
COOL.Stage.Inst.1Hour.0.Ccp-Rev
COOL.Stage-Alt.Inst.1Hour.0.Ccp-Rev
COOL.Flow.Inst.1Hour.0.Ccp-Rev
COOL.Temp-Water.Inst.1Hour.0.Ccp-Rev
COOL.Cond.Inst.1Hour.0.Ccp-Rev
COOL.Volt-Battery Load.Inst.1Hour.0.Ccp-Rev

                            

All information presented herein is the property of the government of the United States of America and may be revised or deleted at any time without prior notice. Dissemination of this information without the expressed written consent of the Public Affairs Office, Tulsa District U.S. Army Corps of Engineers is strictly prohibited. These data are gathered electronically and, as presented, have NOT undergone any form of quality control. These data are NOT guaranteed to be valid or correct.